Helena — SCGL — position and weather

sailwx.info

Track history (hours):
 
Tides and Currents Weather Stations Pressure Air Temp Water Temp Dewpoint Dewpoint Depression Visibility Wind Speed Wind Dir Waves Ship Positions

Helena

Last reported at 2015-May-05 02:04 UTC. Time now 2015-May-05 05:09 UTC.
Position N 55°44' E 015°42'.

Length 169 m; draft 6.4 m.

Type: Cargo ship. MMSI: 265145000.

Date/timePositionNaut miles runAvg speedWind from/ knotsBaromVisibWave heightAir tempDewpointWater temp
2015-May-05 02:04N 55°44' E 015°42'1016.5
2015-May-05 01:27N 55°39' E 015°27'1516.4
2015-May-05 00:34N 55°32' E 015°04'1716.5
2015-May-04 23:33N 55°23' E 014°39'1616.4
2015-May-04 22:34N 55°11' E 014°20'1616.1
2015-May-04 21:33N 55°00' E 013°59'1716.6
2015-May-04 20:33N 54°54' E 013°32'1616.6
2015-May-04 19:34N 54°48' E 013°06'1615.9
2015-May-04 18:34N 54°41' E 012°41'1615.7
2015-May-04 17:33N 54°32' E 012°19'1414.1
2015-May-04 16:33N 54°24' E 011°59'1615.9
2015-May-04 15:33N 54°15' E 011°36'1616.2
2015-May-04 14:33N 54°06' E 011°13'2 0.2
2015-May-04 02:33N 54°09' E 011°13'1414.0
2015-May-04 01:34N 54°17' E 011°33'1414.1
2015-May-04 00:34N 54°25' E 011°53'1212.2
2015-May-03 23:33N 54°30' E 012°12'1413.8
2015-May-03 22:33N 54°42' E 012°26'1414.1
2015-May-03 21:33N 54°48' E 012°47'1414.0
2015-May-03 20:33N 54°53' E 013°10'1414.0
2015-May-03 19:33N 54°57' E 013°33'1413.9
2015-May-03 18:33N 55°02' E 013°56'1413.6
2015-May-03 17:33N 55°11' E 014°14'1212.4
2015-May-03 16:33N 55°21' E 014°28'7 7.0
2015-May-03 15:33N 55°26' E 014°36'7 7.0
2015-May-03 14:33N 55°29' E 014°47'7 7.1
2015-May-03 13:33N 55°33' E 014°57'7 7.1
2015-May-03 12:33N 55°37' E 015°08'7 7.0
2015-May-03 11:33N 55°40' E 015°19'8 6.9
2015-May-03 10:26N 55°44' E 015°31'6 6.7
2015-May-03 09:33N 55°47' E 015°39'80 7.7
2015-May-02 23:12N 56°52' E 017°05'6 9.2
2015-May-02 22:33N 56°57' E 017°08'10 9.0
2015-May-02 21:27N 57°07' E 017°13'9 9.5
2015-May-02 20:33N 57°14' E 017°20'9 8.9
2015-May-02 19:33N 57°22' E 017°29'9 8.9
2015-May-02 18:32N 57°30' E 017°38'  
2015-Apr-28 10:33N 57°33' E 017°54'1616.1
2015-Apr-28 09:33N 57°19' E 017°42'1615.9
2015-Apr-28 08:33N 57°04' E 017°31'10514.8
2015-Apr-28 01:29N 55°41' E 015°35'1515.9
2015-Apr-28 00:33N 55°34' E 015°12'1615.8
2015-Apr-27 23:33N 55°26' E 014°48'1615.8
2015-Apr-27 22:33N 55°15' E 014°28'1615.9
2015-Apr-27 21:33N 55°03' E 014°10'1615.9
2015-Apr-27 20:33N 54°56' E 013°45'1616.3
2015-Apr-27 19:33N 54°51' E 013°18'1616.4
2015-Apr-27 18:33N 54°44' E 012°52'1616.1
2015-Apr-27 17:33N 54°36' E 012°29'1615.6
2015-Apr-27 16:33N 54°25' E 012°09'1616.0
2015-Apr-27 15:33N 54°18' E 011°44'1616.2
2015-Apr-27 14:33N 54°09' E 011°21'7 0.2
2015-Apr-26 03:12N 54°07' E 011°10'913.5
2015-Apr-26 02:33N 54°13' E 011°22'1413.7
2015-Apr-26 01:33N 54°20' E 011°42'1313.5
2015-Apr-26 00:33N 54°26' E 012°03'1212.2
2015-Apr-25 23:33N 54°36' E 012°15'1413.8
2015-Apr-25 22:33N 54°44' E 012°34'1413.8
2015-Apr-25 21:33N 54°51' E 012°55'1413.7
2015-Apr-25 20:32N 54°55' E 013°18'1313.5
2015-Apr-25 19:34N 54°59' E 013°40'2512.1
2015-Apr-25 17:27N 55°13' E 014°17'1213.8
2015-Apr-25 16:33N 55°23' E 014°30'1313.3
2015-Apr-25 15:33N 55°31' E 014°49'1313.4
2015-Apr-25 14:33N 55°38' E 015°09'1413.5
2015-Apr-25 13:29N 55°45' E 015°31'8413.7
2015-Apr-25 07:21N 56°51' E 017°05'1214.8
2015-Apr-25 06:33N 57°02' E 017°11'1514.8
2015-Apr-25 05:34N 57°16' E 017°22'1515.1
2015-Apr-25 04:33N 57°29' E 017°37'  
Track history (hours):
 
Tides and Currents Weather Stations Pressure Air Temp Water Temp Dewpoint Dewpoint Depression Visibility Wind Speed Wind Dir Waves Ship Positions

Helena

Last reported at 2015-May-05 02:04 UTC. Time now 2015-May-05 05:09 UTC.
Position N 55°44' E 015°42'.

Length 169 m; draft 6.4 m.

Type: Cargo ship. MMSI: 265145000.

Date/timePositionNaut miles runAvg speedWind from/ knotsBaromVisibWave heightAir tempDewpointWater temp
2015-May-05 02:04N 55°44' E 015°42'1016.5
2015-May-05 01:27N 55°39' E 015°27'1516.4
2015-May-05 00:34N 55°32' E 015°04'1716.5
2015-May-04 23:33N 55°23' E 014°39'1616.4
2015-May-04 22:34N 55°11' E 014°20'1616.1
2015-May-04 21:33N 55°00' E 013°59'1716.6
2015-May-04 20:33N 54°54' E 013°32'1616.6
2015-May-04 19:34N 54°48' E 013°06'1615.9
2015-May-04 18:34N 54°41' E 012°41'1615.7
2015-May-04 17:33N 54°32' E 012°19'1414.1
2015-May-04 16:33N 54°24' E 011°59'1615.9
2015-May-04 15:33N 54°15' E 011°36'1616.2
2015-May-04 14:33N 54°06' E 011°13'2 0.2
2015-May-04 02:33N 54°09' E 011°13'1414.0
2015-May-04 01:34N 54°17' E 011°33'1414.1
2015-May-04 00:34N 54°25' E 011°53'1212.2
2015-May-03 23:33N 54°30' E 012°12'1413.8
2015-May-03 22:33N 54°42' E 012°26'1414.1
2015-May-03 21:33N 54°48' E 012°47'1414.0
2015-May-03 20:33N 54°53' E 013°10'1414.0
2015-May-03 19:33N 54°57' E 013°33'1413.9
2015-May-03 18:33N 55°02' E 013°56'1413.6
2015-May-03 17:33N 55°11' E 014°14'1212.4
2015-May-03 16:33N 55°21' E 014°28'7 7.0
2015-May-03 15:33N 55°26' E 014°36'7 7.0
2015-May-03 14:33N 55°29' E 014°47'7 7.1
2015-May-03 13:33N 55°33' E 014°57'7 7.1
2015-May-03 12:33N 55°37' E 015°08'7 7.0
2015-May-03 11:33N 55°40' E 015°19'8 6.9
2015-May-03 10:26N 55°44' E 015°31'6 6.7
2015-May-03 09:33N 55°47' E 015°39'80 7.7
2015-May-02 23:12N 56°52' E 017°05'6 9.2
2015-May-02 22:33N 56°57' E 017°08'10 9.0
2015-May-02 21:27N 57°07' E 017°13'9 9.5
2015-May-02 20:33N 57°14' E 017°20'9 8.9
2015-May-02 19:33N 57°22' E 017°29'9 8.9
2015-May-02 18:32N 57°30' E 017°38'  
2015-Apr-28 10:33N 57°33' E 017°54'1616.1
2015-Apr-28 09:33N 57°19' E 017°42'1615.9
2015-Apr-28 08:33N 57°04' E 017°31'10514.8
2015-Apr-28 01:29N 55°41' E 015°35'1515.9
2015-Apr-28 00:33N 55°34' E 015°12'1615.8
2015-Apr-27 23:33N 55°26' E 014°48'1615.8
2015-Apr-27 22:33N 55°15' E 014°28'1615.9
2015-Apr-27 21:33N 55°03' E 014°10'1615.9
2015-Apr-27 20:33N 54°56' E 013°45'1616.3
2015-Apr-27 19:33N 54°51' E 013°18'1616.4
2015-Apr-27 18:33N 54°44' E 012°52'1616.1
2015-Apr-27 17:33N 54°36' E 012°29'1615.6
2015-Apr-27 16:33N 54°25' E 012°09'1616.0
2015-Apr-27 15:33N 54°18' E 011°44'1616.2
2015-Apr-27 14:33N 54°09' E 011°21'7 0.2
2015-Apr-26 03:12N 54°07' E 011°10'913.5
2015-Apr-26 02:33N 54°13' E 011°22'1413.7
2015-Apr-26 01:33N 54°20' E 011°42'1313.5
2015-Apr-26 00:33N 54°26' E 012°03'1212.2
2015-Apr-25 23:33N 54°36' E 012°15'1413.8
2015-Apr-25 22:33N 54°44' E 012°34'1413.8
2015-Apr-25 21:33N 54°51' E 012°55'1413.7
2015-Apr-25 20:32N 54°55' E 013°18'1313.5
2015-Apr-25 19:34N 54°59' E 013°40'2512.1
2015-Apr-25 17:27N 55°13' E 014°17'1213.8
2015-Apr-25 16:33N 55°23' E 014°30'1313.3
2015-Apr-25 15:33N 55°31' E 014°49'1313.4
2015-Apr-25 14:33N 55°38' E 015°09'1413.5
2015-Apr-25 13:29N 55°45' E 015°31'8413.7
2015-Apr-25 07:21N 56°51' E 017°05'1214.8
2015-Apr-25 06:33N 57°02' E 017°11'1514.8
2015-Apr-25 05:34N 57°16' E 017°22'1515.1
2015-Apr-25 04:33N 57°29' E 017°37'  

Dump ship's entire track history